PGRO/ROP METAR and TAF weather

Enter ICAO airport designator
Station Type Date Time Source
PGRO METAR 2021/07/29 07:50 UTC NOAA

PGRO 290750Z 09006KT 7SM FEW018 BKN085 27/24 A2979 RMK LAST


Station Type Date Time Source
PGRO Decoded METAR 2021/07/29 07:50 UTC NOAA

Rota Island, N. Mariana Is, Rota International Airport, GU, United States (PGRO) 14-11N 145-15E
Jul 29, 2021 - 03:50 AM EDT / 2021.07.29 0750 UTC
Wind: from the E (090 degrees) at 7 MPH (6 KT):0
Visibility: 7 mile(s):0
Sky conditions: mostly cloudy
Temperature: 80 F (27 C)
Dew Point: 75 F (24 C)
Relative Humidity: 83%
Pressure (altimeter): 29.79 in. Hg (1008 hPa)
ob: PGRO 290750Z 09006KT 7SM FEW018 BKN085 27/24 A2979 RMK LAST
cycle: 8

Station Type Date Time Source
PGRO TAF 2021/07/29 06:48 UTC NOAA

TAF PGRO 290546Z 2906/3006 VRB05KT P6SM VCSH SCT016 BKN150

Example: see airport list